Flight Track Log - Related Links

Times and Time Zones

All times are in EST time to prevent confusion due to time zone crossing. See the AAY863 flight status page for this flight to view local times or setup timezone preferences in your user account.

Time Position Orientation Groundspeed Altitude Reporting Facility
EST Latitude Longitude Course Direction KTS MPH feet Rate Location/Type
Thu 09:33:48 PM 41.8803 -91.7528 232° Southwest 157 181 2,300  Level FlightAware (SBMG / MGF)
Thu 09:34:08 PM 41.8647 -91.7602 199° South 204 235 2,600 1,077 Climbing FlightAware (SBMG / MGF)
Thu 09:34:27 PM 41.8468 -91.7570 172° South 240 276 3,000 1,650 Climbing FlightAware (SBMG / MGF)
Thu 09:34:48 PM 41.8218 -91.7463 162° South 264 304 3,700 2,780 Climbing FlightAware (SBMG / MGF)
Thu 09:35:08 PM 41.7989 -91.7342 159° South 265 305 4,900 4,250 Climbing FlightAware (SBMG / MGF)
Thu 09:35:36 PM 41.7665 -91.7174 159° South 271 312 7,100 3,458 Climbing FlightAware (SBMG / MGF)
Thu 09:36:07 PM 41.7297 -91.7009 162° South 262 302 8,300 2,500 Climbing FlightAware (SBMG / MGF)
Thu 09:36:24 PM 41.7094 -91.6933 164° South 268 308 9,100 2,250 Climbing FlightAware (SBMG / MGF)
Thu 09:36:47 PM 41.6817 -91.6828 164° South 285 328 9,800 1,418 Climbing FlightAware (SBMG / MGF)
Thu 09:37:19 PM 41.6521 -91.6700 162° South 343 395 10,400 1,920 Climbing FlightAware (SBMG / MGF)
Thu 09:39:42 PM 41.4545 -91.4507 140° Southeast 408 470 15,400 2,275 Climbing FlightAware (SBMG / MGF)
Thu 09:40:21 PM 41.4036 -91.3925 140° Southeast 402 463 17,300 2,220 Climbing Chicago Center
Thu 09:41:22 PM 41.3072 -91.2867 140° Southeast 409 471 19,100 1,820 Climbing Chicago Center
Thu 09:42:23 PM 41.2164 -91.1858 140° Southeast 419 482 21,000 1,756 Climbing Chicago Center
Thu 09:43:25 PM 41.1231 -91.0836 140° Southeast 430 495 22,700 1,463 Climbing Chicago Center
Thu 09:44:26 PM 41.0281 -90.9767 140° Southeast 441 507 24,000 1,268 Climbing Chicago Center
Thu 09:45:28 PM 40.9294 -90.8686 140° Southeast 457 526 25,300 1,268 Climbing Chicago Center
Thu 09:46:29 PM 40.8264 -90.7569 141° Southeast 478 550 26,600 1,131 Climbing Chicago Center
Thu 09:47:30 PM 40.7225 -90.6431 140° Southeast 487 560 27,600 1,024 Climbing Chicago Center
Thu 09:48:32 PM 40.6150 -90.5272 141° Southeast 500 575 28,700 1,073 Climbing Chicago Center
Thu 09:49:33 PM 40.4850 -90.3850 140° Southeast 509 586 29,800 1,180 Climbing Chicago Center
Thu 09:50:34 PM 40.3769 -90.2672 140° Southeast 511 588 31,100 1,317 Climbing Chicago Center
Thu 09:51:36 PM 40.2858 -90.1164 128° Southeast 533 613 32,500 1,307 Climbing Chicago Center
Thu 09:52:15 PM 40.2336 -90.0256 127° Southeast 528 608 33,300 423 Climbing Kansas Center
Thu 09:57:31 PM 39.6741 -89.4487 127° Southeast 493 567 35,000 312 Climbing FlightAware
Thu 09:57:42 PM 39.6741 -89.4487 127° Southeast 497 572 35,000  Level FlightAware
Thu 09:58:36 PM 39.5281 -89.3033 142° Southeast 498 573 35,000 63 Level FlightAware
Thu 09:59:17 PM 39.5281 -89.3033 142° Southeast 497 572 35,100 54 Climbing FlightAware
Thu 10:00:28 PM 39.3243 -89.1020 143° Southeast 492 566 35,100 -37 Level FlightAware
Thu 10:01:58 PM 39.1599 -88.9405 143° Southeast 492 566 35,000 -39 Descending FlightAware
Thu 10:03:00 PM 39.0481 -88.8315 143° Southeast 492 566 35,000  Level FlightAware
Thu 10:03:34 PM 38.9869 -88.7719 143° Southeast 495 570 35,000  Level FlightAware
Thu 10:04:20 PM 38.9116 -88.6988 143° Southeast 498 573 35,000  Level FlightAware
Thu 10:04:59 PM 38.8353 -88.6249 143° Southeast 502 578 35,000  Level FlightAware
Thu 10:05:38 PM 38.7630 -88.5551 143° Southeast 503 579 35,000  Level FlightAware
Thu 10:06:18 PM 38.7021 -88.4966 143° Southeast 504 580 35,000  Level FlightAware
Thu 10:06:55 PM 38.6138 -88.4119 143° Southeast 505 581 35,000  Level FlightAware
Thu 10:07:38 PM 38.5331 -88.3342 143° Southeast 503 579 35,000  Level FlightAware
Thu 10:08:11 PM 38.5175 -88.3192 143° Southeast 502 578 35,000  Level FlightAware
Thu 10:09:00 PM 38.3812 -88.1893 143° Southeast 501 577 35,000  Level FlightAware
Thu 10:10:20 PM 38.2303 -88.0538 145° Southeast 496 571 35,000  Level FlightAware
Thu 10:11:01 PM 38.1554 -87.9915 147° Southeast 497 572 35,000  Level FlightAware
Thu 10:12:00 PM 38.0390 -87.8924 146° Southeast 497 572 35,000  Level FlightAware
Thu 10:13:09 PM 38.0390 -87.8924 146° Southeast 495 570 35,000  Level FlightAware
Thu 10:14:09 PM 37.8377 -87.7186 146° Southeast 496 571 35,000  Level FlightAware
Thu 10:17:09 PM 37.4461 -87.4716 153° Southeast 477 549 35,000  Level FlightAware
Thu 10:17:58 PM 37.3518 -87.4201 157° South 477 549 35,000 34 Level FlightAware
Thu 10:20:07 PM 37.0884 -87.2771 157° South 480 552 35,100 31 Climbing FlightAware
Thu 10:21:09 PM 37.0614 -87.2624 157° South 477 549 35,100 -57 Level FlightAware
Thu 10:21:53 PM 36.8719 -87.1592 157° South 477 549 35,000 -57 Descending Memphis Center
Thu 10:22:54 PM 36.7514 -87.0947 157° South 470 541 35,000  Level Memphis Center
Thu 10:23:55 PM 36.6314 -87.0300 157° South 466 536 35,000  Level Memphis Center
Thu 10:24:56 PM 36.5117 -86.9667 157° South 464 534 35,000  Level Memphis Center
Thu 10:25:57 PM 36.3844 -86.8994 157° South 462 532 35,000  Level Memphis Center
Thu 10:26:58 PM 36.2628 -86.8350 157° South 462 532 35,000  Level Memphis Center
Thu 10:27:59 PM 36.1425 -86.7725 157° South 463 533 35,000  Level Memphis Center
Thu 10:29:00 PM 36.0225 -86.7083 157° South 464 534 35,000  Level Memphis Center
Thu 10:30:00 PM 35.9042 -86.6467 157° South 460 529 35,000  Level Memphis Center
Thu 10:31:01 PM 35.7847 -86.5839 157° South 461 531 35,000  Level Memphis Center
Thu 10:32:02 PM 35.6656 -86.5214 157° South 462 532 35,000 -197 Level Memphis Center
Thu 10:33:03 PM 35.5472 -86.4608 157° South 457 526 34,600 -689 Descending Memphis Center
Thu 10:34:04 PM 35.4267 -86.3981 157° South 463 533 33,600 -1,036 Descending Memphis Center
Thu 10:34:53 PM 35.3169 -86.3422 157° South 476 548 32,700 -991 Descending Atlanta Center
Thu 10:35:53 PM 35.1950 -86.2778 157° South 482 555 31,800 -850 Descending Atlanta Center
Thu 10:36:53 PM 35.0917 -86.2244 157° South 466 536 31,000 -400 Descending Atlanta Center
Thu 10:37:53 PM 34.9739 -86.1631 157° South 460 529 31,000  Level Atlanta Center
Thu 10:38:53 PM 34.8558 -86.1042 158° South 460 529 31,000  Level Atlanta Center
Thu 10:39:53 PM 34.7381 -86.0458 158° South 460 529 31,000  Level Atlanta Center
Thu 10:40:53 PM 34.6219 -85.9850 157° South 460 529 31,000  Level Atlanta Center
Thu 10:41:53 PM 34.5039 -85.9267 158° South 455 524 31,000  Level Atlanta Center
Thu 10:42:53 PM 34.3903 -85.8664 156° South 450 518 31,000 -50 Level Atlanta Center
Thu 10:43:53 PM 34.2658 -85.8058 158° South 450 518 30,900  Descending Atlanta Center
Thu 10:44:53 PM 34.1519 -85.7483 157° South 441 507 31,000 50 Climbing Atlanta Center
Thu 10:45:53 PM 34.0336 -85.6906 158° South 451 519 31,000  Level Atlanta Center
Thu 10:46:53 PM 33.9156 -85.6333 158° South 451 519 31,000  Level Atlanta Center
Thu 10:47:53 PM 33.8014 -85.5761 157° South 451 519 31,000  Level Atlanta Center
Thu 10:48:53 PM 33.6853 -85.5192 158° South 451 519 31,000  Level Atlanta Center
Thu 10:49:53 PM 33.5711 -85.4650 158° South 446 513 31,000  Level Atlanta Center
Thu 10:50:53 PM 33.4569 -85.4083 158° South 446 513 31,000  Level Atlanta Center
Thu 10:51:53 PM 33.3428 -85.3517 157° South 446 513 31,000  Level Atlanta Center
Thu 10:52:53 PM 33.2283 -85.2978 158° South 446 513 31,000  Level Atlanta Center
Thu 10:53:53 PM 33.1164 -85.2417 157° South 451 519 31,000  Level Atlanta Center
Thu 10:54:53 PM 33.0125 -85.1908 158° South 451 519 31,000  Level Atlanta Center
Thu 10:55:53 PM 32.8814 -85.1369 161° South 451 519 31,000  Level Atlanta Center
Thu 10:56:53 PM 32.7753 -85.1111 168° South 429 494 31,000  Level Atlanta Center
Thu 10:57:53 PM 32.6586 -85.0725 164° South 436 502 31,000  Level Atlanta Center
Thu 10:58:53 PM 32.5400 -85.0319 164° South 436 502 31,000  Level Atlanta Center
Thu 10:59:53 PM 32.4233 -84.9936 164° South 436 502 31,000  Level Atlanta Center
Thu 11:00:53 PM 32.3067 -84.9531 164° South 436 502 31,000  Level Atlanta Center
Thu 11:01:53 PM 32.1922 -84.9150 164° South 436 502 31,000  Level Atlanta Center
Thu 11:04:11 PM 31.9097 -84.8211 164° South 440 506 31,000  Level Jacksonville Center
Thu 11:05:11 PM 31.7914 -84.7794 163° South 435 501 31,000  Level Jacksonville Center
Thu 11:06:11 PM 31.6728 -84.7431 165° South 435 501 31,000  Level Jacksonville Center
Thu 11:11:45 PM 31.0263 -84.4257 165° South 453 521 31,000  Level FlightAware (KONZ)
Thu 11:12:24 PM 30.9528 -84.3844 154° Southeast 454 522 31,000  Level FlightAware (KONZ)
Thu 11:13:04 PM 30.9009 -84.3554 154° Southeast 453 521 31,000  Level FlightAware (KONZ)
Thu 11:13:42 PM 30.8129 -84.3060 154° Southeast 450 518 31,000  Level FlightAware (KONZ)
Thu 11:14:17 PM 30.7402 -84.2653 154° Southeast 449 517 31,000  Level FlightAware (KONZ)
Thu 11:14:58 PM 30.6749 -84.2288 154° Southeast 446 513 31,000  Level FlightAware (KONZ)
Thu 11:16:44 PM 30.4643 -84.1118 154° Southeast 447 514 31,000  Level FlightAware (KONZ)
Thu 11:17:42 PM 30.3559 -84.0518 154° Southeast 449 517 31,000  Level FlightAware (KONZ)
Thu 11:18:23 PM 30.2820 -84.0109 154° Southeast 450 518 31,000  Level FlightAware (KONZ)
Thu 11:18:56 PM 30.2183 -83.9757 154° Southeast 450 518 31,000  Level FlightAware (KONZ)
Thu 11:19:39 PM 30.1362 -83.9305 155° Southeast 449 517 31,000  Level FlightAware (KONZ)
Thu 11:20:21 PM 30.0605 -83.8888 155° Southeast 449 517 31,000 -65 Level FlightAware (KONZ)
Thu 11:21:11 PM 29.9708 -83.8397 155° Southeast 443 510 30,900  Descending Jacksonville Center
Thu 11:22:11 PM 29.8564 -83.7786 155° Southeast 443 510 31,000 50 Climbing Jacksonville Center
Thu 11:23:11 PM 29.7419 -83.7156 154° Southeast 443 510 31,000  Level Jacksonville Center
Thu 11:24:11 PM 29.6275 -83.6522 154° Southeast 443 510 31,000  Level Jacksonville Center
Thu 11:25:11 PM 29.5150 -83.5917 155° Southeast 448 516 31,000  Level Jacksonville Center
Thu 11:26:11 PM 29.3986 -83.5314 156° South 448 516 31,000 -900 Level Jacksonville Center
Thu 11:27:11 PM 29.2839 -83.4686 154° Southeast 448 516 29,200 -2,200 Descending Jacksonville Center
Thu 11:28:11 PM 29.1694 -83.4061 155° Southeast 453 521 26,600 -2,500 Descending Jacksonville Center
Thu 11:29:11 PM 29.0569 -83.3439 154° Southeast 453 521 24,200 -2,300 Descending Jacksonville Center
Thu 11:30:11 PM 28.9486 -83.2864 155° Southeast 447 514 22,000 -1,950 Descending Jacksonville Center
Thu 11:31:11 PM 28.8486 -83.2317 154° Southeast 426 490 20,300 -1,700 Descending Jacksonville Center
Thu 11:32:11 PM 28.7486 -83.1767 154° Southeast 403 464 18,600 -1,625 Descending Jacksonville Center
Thu 11:33:35 PM 28.6167 -83.1167 158° South 362 417 16,400 -1,591 Descending Tampa TRACON
Thu 11:34:23 PM 28.5500 -83.0667 147° Southeast 346 398 15,100 -1,500 Descending Tampa TRACON
Thu 11:35:23 PM 28.4667 -83.0333 161° South 327 376 13,700 -1,350 Descending Tampa TRACON
Thu 11:36:23 PM 28.3833 -82.9833 152° Southeast 322 371 12,400 -1,150 Descending Tampa TRACON
Thu 11:37:23 PM 28.3000 -82.9500 161° South 303 349 11,400 -1,053 Descending Tampa TRACON
Thu 11:38:17 PM 28.2333 -82.9167 156° South 289 333 10,400 -842 Descending Tampa TRACON
Thu 11:39:17 PM 28.1667 -82.8833 156° South 288 331 9,800 -1,000 Descending Tampa TRACON
Thu 11:40:17 PM 28.0833 -82.8667 170° South 279 321 8,400 -1,500 Descending Tampa TRACON
Thu 11:41:17 PM 28.0167 -82.8333 156° South 276 318 6,800 -1,565 Descending Tampa TRACON
Thu 11:42:12 PM 27.9500 -82.8167 168° South 267 307 5,400 -939 Descending Tampa TRACON
Thu 11:43:12 PM 27.8833 -82.7833 156° South 209 241 5,000 -450 Descending Tampa TRACON
Thu 11:44:12 PM 27.8333 -82.7667 164° South 177 204 4,500 -750 Descending Tampa TRACON
Thu 11:45:12 PM 27.7833 -82.7500 164° South 175 201 3,500 -750 Descending Tampa TRACON
Thu 11:46:12 PM 27.7500 -82.7667 204° Southwest 174 200 3,000 -450 Descending Tampa TRACON
Thu 11:47:12 PM 27.7000 -82.7500 164° South 184 212 2,600 -526 Descending Tampa TRACON
Thu 11:48:06 PM 27.7000 -82.7000 90° East 166 191 2,000 -316 Descending Tampa TRACON
Thu 11:49:06 PM 27.7500 -82.6667 31° Northeast 171 197 2,000  Level Tampa TRACON
Thu 11:50:06 PM 27.7833 -82.6667 360° North 140 161 2,000 -250 Level Tampa TRACON
Thu 11:51:06 PM 27.8333 -82.6667 360° North 139 160 1,500 -600 Descending Tampa TRACON
Thu 11:52:06 PM 27.8667 -82.6833 336° Northwest 128 147 800 -700 Descending Tampa TRACON

Login

Don't have an account? Register now (free) for customized features, flight alerts, and more!